createdAt,value
2019-03-31T00:00:24.623Z,1017.31
2019-03-31T00:01:24.606Z,1017.25
2019-03-31T00:02:24.598Z,1017.31
2019-03-31T00:03:24.588Z,1017.24
2019-03-31T00:04:24.576Z,1017.29
2019-03-31T00:05:24.580Z,1017.29
2019-03-31T00:06:24.553Z,1017.33
2019-03-31T00:07:24.543Z,1017.36
2019-03-31T00:08:24.536Z,1017.31
2019-03-31T00:09:24.527Z,1017.35
2019-03-31T00:10:24.519Z,1017.37
2019-03-31T00:11:24.510Z,1017.39
2019-03-31T00:12:24.490Z,1017.37
2019-03-31T00:13:24.479Z,1017.36
2019-03-31T00:14:24.473Z,1017.45
2019-03-31T00:15:24.460Z,1017.39
2019-03-31T00:16:24.446Z,1017.38
2019-03-31T00:17:24.448Z,1017.35
2019-03-31T00:18:24.425Z,1017.38
2019-03-31T00:19:24.418Z,1017.38
2019-03-31T00:20:24.460Z,1017.41
2019-03-31T00:21:24.406Z,1017.40
2019-03-31T00:22:24.382Z,1017.41
2019-03-31T00:23:24.384Z,1017.38
2019-03-31T00:24:24.361Z,1017.35
2019-03-31T00:25:24.357Z,1017.40
2019-03-31T00:26:24.350Z,1017.33
2019-03-31T00:27:24.338Z,1017.31
2019-03-31T00:28:24.318Z,1017.30
2019-03-31T00:29:24.321Z,1017.32
2019-03-31T00:30:24.298Z,1017.31
2019-03-31T00:31:24.286Z,1017.33
2019-03-31T00:32:24.275Z,1017.32
2019-03-31T00:33:24.338Z,1017.31
2019-03-31T00:34:24.257Z,1017.35
2019-03-31T00:35:24.268Z,1017.26
2019-03-31T00:36:24.236Z,1017.27
2019-03-31T00:37:24.222Z,1017.26
2019-03-31T00:38:24.213Z,1017.28
2019-03-31T00:39:24.200Z,1017.29
2019-03-31T00:40:24.189Z,1017.31
2019-03-31T00:41:24.192Z,1017.27
2019-03-31T00:42:24.168Z,1017.26
2019-03-31T00:43:24.157Z,1017.28
2019-03-31T00:44:24.146Z,1017.26
2019-03-31T00:45:24.287Z,1017.25
2019-03-31T00:46:24.127Z,1017.26
2019-03-31T00:47:24.128Z,1017.22
2019-03-31T00:48:24.106Z,1017.27
2019-03-31T00:49:24.097Z,1017.26
2019-03-31T00:50:24.082Z,1017.29
2019-03-31T00:51:24.072Z,1017.29
2019-03-31T00:52:24.081Z,1017.22
2019-03-31T00:53:24.061Z,1017.24
2019-03-31T00:54:24.038Z,1017.29
2019-03-31T00:55:24.036Z,1017.24
2019-03-31T00:56:24.021Z,1017.26
2019-03-31T00:57:24.006Z,1017.22
2019-03-31T00:58:24.000Z,1017.19
2019-03-31T00:59:23.998Z,1017.20
2019-03-31T01:00:23.974Z,1017.24
2019-03-31T01:01:35.718Z,1017.22
2019-03-31T01:02:24.951Z,1017.20
2019-03-31T01:03:23.947Z,1017.23
2019-03-31T01:04:23.930Z,1017.27
2019-03-31T01:05:23.937Z,1017.38
2019-03-31T01:06:23.908Z,1017.37
2019-03-31T01:07:23.899Z,1017.36
2019-03-31T01:08:23.889Z,1017.32
2019-03-31T01:09:23.949Z,1017.34
2019-03-31T01:10:23.864Z,1017.37
2019-03-31T01:11:23.872Z,1017.36
2019-03-31T01:12:23.845Z,1017.42
2019-03-31T01:13:23.832Z,1017.42
2019-03-31T01:14:23.820Z,1017.42
2019-03-31T01:15:23.810Z,1017.43
2019-03-31T01:16:23.798Z,1017.49
2019-03-31T01:17:23.797Z,1017.45
2019-03-31T01:18:23.777Z,1017.42
2019-03-31T01:19:23.765Z,1017.48
2019-03-31T01:20:23.757Z,1017.49
2019-03-31T01:21:23.743Z,1017.50
2019-03-31T01:22:23.734Z,1017.49
2019-03-31T01:23:23.734Z,1017.50
2019-03-31T01:24:23.710Z,1017.50
2019-03-31T01:25:23.699Z,1017.58
2019-03-31T01:26:23.688Z,1017.52
2019-03-31T01:27:23.677Z,1017.49
2019-03-31T01:28:23.666Z,1017.57
2019-03-31T01:29:23.670Z,1017.57
2019-03-31T01:30:23.649Z,1017.52
2019-03-31T01:31:23.632Z,1017.50
2019-03-31T01:32:23.627Z,1017.56
2019-03-31T01:33:23.620Z,1017.47
2019-03-31T01:34:23.601Z,1017.53
2019-03-31T01:35:23.603Z,1017.48
2019-03-31T01:36:23.578Z,1017.49
2019-03-31T01:37:23.567Z,1017.56
2019-03-31T01:38:23.556Z,1017.53
2019-03-31T01:39:23.547Z,1017.54
2019-03-31T01:40:23.546Z,1017.61
2019-03-31T01:41:23.534Z,1017.60
2019-03-31T01:42:23.514Z,1017.62
2019-03-31T01:43:23.504Z,1017.64
2019-03-31T01:44:23.491Z,1017.64
2019-03-31T01:45:23.483Z,1017.67
2019-03-31T01:46:23.468Z,1017.66
2019-03-31T01:47:23.475Z,1017.73
2019-03-31T01:48:23.453Z,1017.67
2019-03-31T01:49:23.447Z,1017.72
2019-03-31T01:50:23.426Z,1017.65
2019-03-31T01:51:23.414Z,1017.71
2019-03-31T01:52:23.408Z,1017.68
2019-03-31T01:53:23.407Z,1017.70
2019-03-31T01:54:23.390Z,1017.72
2019-03-31T01:55:23.371Z,1017.71
2019-03-31T01:56:23.362Z,1017.71
2019-03-31T01:57:23.353Z,1017.75
2019-03-31T01:58:23.341Z,1017.75
2019-03-31T01:59:23.338Z,1017.72
2019-03-31T02:00:23.317Z,1017.71
2019-03-31T02:01:23.315Z,1017.73
2019-03-31T02:02:23.295Z,1017.73
2019-03-31T02:03:23.284Z,1017.72
2019-03-31T02:04:23.274Z,1017.73
2019-03-31T02:05:23.276Z,1017.76
2019-03-31T02:06:23.252Z,1017.76
2019-03-31T02:07:23.243Z,1017.79
2019-03-31T02:08:23.230Z,1017.81
2019-03-31T02:09:23.220Z,1017.79
2019-03-31T02:10:23.209Z,1017.83
2019-03-31T02:11:23.209Z,1017.79
2019-03-31T02:12:23.190Z,1017.81
2019-03-31T02:13:23.177Z,1017.78
2019-03-31T02:14:23.169Z,1017.82
2019-03-31T02:15:23.157Z,1017.81
2019-03-31T02:16:23.146Z,1017.84
2019-03-31T02:17:23.150Z,1017.84
2019-03-31T02:18:23.126Z,1017.86
2019-03-31T02:19:23.115Z,1017.86
2019-03-31T02:20:23.103Z,1017.89
2019-03-31T02:21:23.093Z,1017.87
2019-03-31T02:22:23.082Z,1017.87
2019-03-31T02:23:23.088Z,1017.90
2019-03-31T02:24:23.061Z,1017.86
2019-03-31T02:25:23.050Z,1017.83
2019-03-31T02:26:23.039Z,1017.87
2019-03-31T02:27:23.030Z,1017.88
2019-03-31T02:28:23.019Z,1017.90
2019-03-31T02:29:23.021Z,1017.96
2019-03-31T02:30:22.999Z,1017.85
2019-03-31T02:31:22.989Z,1017.87
2019-03-31T02:32:24.676Z,1017.90
2019-03-31T02:33:22.963Z,1017.94
2019-03-31T02:34:22.959Z,1017.96
2019-03-31T02:35:22.965Z,1017.94
2019-03-31T02:36:22.932Z,1017.97
2019-03-31T02:37:22.923Z,1017.93
2019-03-31T02:38:22.919Z,1017.99
2019-03-31T02:39:22.898Z,1018.04
2019-03-31T02:40:22.902Z,1018.01
2019-03-31T02:41:22.893Z,1018.02
2019-03-31T02:42:22.866Z,1018.08
2019-03-31T02:43:22.854Z,1018.09
2019-03-31T02:44:22.844Z,1018.05
2019-03-31T02:45:22.841Z,1018.08
2019-03-31T02:46:22.827Z,1018.08
2019-03-31T02:47:22.823Z,1018.00
2019-03-31T02:48:22.804Z,1018.04
2019-03-31T02:49:22.795Z,1018.04
2019-03-31T02:50:22.778Z,1018.05
2019-03-31T02:51:22.777Z,1018.05
2019-03-31T02:52:22.763Z,1018.07
2019-03-31T02:53:22.757Z,1018.09
2019-03-31T02:54:22.744Z,1018.10
2019-03-31T02:55:22.724Z,1018.11
2019-03-31T02:56:22.721Z,1018.16
2019-03-31T02:57:22.706Z,1018.18
2019-03-31T02:58:22.690Z,1018.16
2019-03-31T02:59:22.698Z,1018.17
2019-03-31T03:00:22.669Z,1018.21
2019-03-31T03:01:22.659Z,1018.10
2019-03-31T03:02:40.166Z,1018.18
2019-03-31T03:03:23.636Z,1018.14
2019-03-31T03:04:22.628Z,1018.23
2019-03-31T03:05:22.625Z,1018.25
2019-03-31T03:06:22.606Z,1018.24
2019-03-31T03:07:22.595Z,1018.28
2019-03-31T03:08:22.586Z,1018.32
2019-03-31T03:09:22.572Z,1018.28
2019-03-31T03:10:22.562Z,1018.24
2019-03-31T03:11:22.567Z,1018.28
2019-03-31T03:12:22.547Z,1018.29
2019-03-31T03:13:22.536Z,1018.24
2019-03-31T03:14:22.526Z,1018.26
2019-03-31T03:15:22.508Z,1018.22
2019-03-31T03:16:22.496Z,1018.23
2019-03-31T03:17:22.497Z,1018.18
2019-03-31T03:18:22.476Z,1018.22
2019-03-31T03:19:22.465Z,1018.22
2019-03-31T03:20:22.463Z,1018.23
2019-03-31T03:21:24.668Z,1018.27
2019-03-31T03:22:22.433Z,1018.24
2019-03-31T03:23:22.437Z,1018.22
2019-03-31T03:24:22.411Z,1018.28
2019-03-31T03:25:22.403Z,1018.27
2019-03-31T03:26:22.398Z,1018.37
2019-03-31T03:27:22.400Z,1018.31
2019-03-31T03:28:22.469Z,1018.34
2019-03-31T03:29:22.370Z,1018.33
2019-03-31T03:30:22.456Z,1018.32
2019-03-31T03:31:22.442Z,1018.30
2019-03-31T03:32:22.423Z,1018.30
2019-03-31T03:33:22.336Z,1018.30
2019-03-31T03:34:22.392Z,1018.30
2019-03-31T03:35:22.305Z,1018.34
2019-03-31T03:36:22.282Z,1018.34
2019-03-31T03:37:22.272Z,1018.34
2019-03-31T03:38:22.261Z,1018.38
2019-03-31T03:39:22.257Z,1018.44
2019-03-31T03:40:22.299Z,1018.37
2019-03-31T03:41:22.239Z,1018.42
2019-03-31T03:42:22.218Z,1018.37
2019-03-31T03:43:22.208Z,1018.46
2019-03-31T03:44:22.199Z,1018.42
2019-03-31T03:45:22.190Z,1018.40
2019-03-31T03:46:22.174Z,1018.43
2019-03-31T03:47:22.176Z,1018.41
2019-03-31T03:48:22.154Z,1018.37
2019-03-31T03:49:22.157Z,1018.41
2019-03-31T03:50:22.133Z,1018.41
2019-03-31T03:51:22.121Z,1018.42
2019-03-31T03:52:22.118Z,1018.42
2019-03-31T03:53:22.111Z,1018.41
2019-03-31T03:54:22.091Z,1018.40
2019-03-31T03:55:22.098Z,1018.36
2019-03-31T03:56:22.069Z,1018.39
2019-03-31T03:57:22.058Z,1018.41
2019-03-31T03:58:22.189Z,1018.36
2019-03-31T03:59:22.047Z,1018.43
2019-03-31T04:00:22.047Z,1018.43
2019-03-31T04:01:22.027Z,1018.48
2019-03-31T04:02:22.006Z,1018.49
2019-03-31T04:03:30.531Z,1018.50
2019-03-31T04:04:22.995Z,1018.47
2019-03-31T04:05:21.975Z,1018.48
2019-03-31T04:06:21.963Z,1018.45
2019-03-31T04:07:21.958Z,1018.48
2019-03-31T04:08:21.943Z,1018.51
2019-03-31T04:09:21.932Z,1018.52
2019-03-31T04:10:21.941Z,1018.55
2019-03-31T04:11:22.120Z,1018.59
2019-03-31T04:12:21.908Z,1018.55
2019-03-31T04:13:21.894Z,1018.54
2019-03-31T04:14:21.877Z,1018.58
2019-03-31T04:15:21.866Z,1018.56
2019-03-31T04:16:21.867Z,1018.62
2019-03-31T04:17:21.845Z,1018.58
2019-03-31T04:18:21.837Z,1018.67
2019-03-31T04:19:21.827Z,1018.65
2019-03-31T04:20:21.814Z,1018.63
2019-03-31T04:21:21.811Z,1018.60
2019-03-31T04:22:21.802Z,1018.61
2019-03-31T04:23:21.781Z,1018.62
2019-03-31T04:24:21.790Z,1018.65
2019-03-31T04:25:21.761Z,1018.62
2019-03-31T04:26:21.754Z,1018.62
2019-03-31T04:27:21.737Z,1018.55
2019-03-31T04:28:21.737Z,1018.58
2019-03-31T04:29:21.716Z,1018.65
2019-03-31T04:30:21.708Z,1018.64
2019-03-31T04:31:21.703Z,1018.67
2019-03-31T04:32:21.690Z,1018.64
2019-03-31T04:33:21.680Z,1018.67
2019-03-31T04:34:21.683Z,1018.65
2019-03-31T04:35:21.698Z,1018.73
2019-03-31T04:36:21.642Z,1018.73
2019-03-31T04:37:21.631Z,1018.76
2019-03-31T04:38:21.629Z,1018.74
2019-03-31T04:39:21.608Z,1018.75
2019-03-31T04:40:21.611Z,1018.74
2019-03-31T04:41:21.596Z,1018.77
2019-03-31T04:42:21.578Z,1018.81
2019-03-31T04:43:21.566Z,1018.79
2019-03-31T04:44:21.555Z,1018.80
2019-03-31T04:45:21.546Z,1018.81
2019-03-31T04:46:21.547Z,1018.87
2019-03-31T04:47:21.521Z,1018.86
2019-03-31T04:48:21.511Z,1018.82
2019-03-31T04:49:21.503Z,1018.77
2019-03-31T04:50:21.492Z,1018.82
2019-03-31T04:51:21.479Z,1018.88
2019-03-31T04:52:21.489Z,1018.92
2019-03-31T04:53:21.456Z,1018.97
2019-03-31T04:54:21.444Z,1019.00
2019-03-31T04:55:21.433Z,1019.08
2019-03-31T04:56:21.423Z,1019.09
2019-03-31T04:57:21.414Z,1019.14
2019-03-31T04:58:21.413Z,1019.07
2019-03-31T04:59:21.391Z,1019.06
2019-03-31T05:00:21.379Z,1019.07
2019-03-31T05:01:21.387Z,1019.11
2019-03-31T05:02:21.359Z,1019.08
2019-03-31T05:03:21.357Z,1019.07
2019-03-31T05:04:21.347Z,1019.09
2019-03-31T05:05:21.329Z,1019.13
2019-03-31T05:06:21.333Z,1019.14
2019-03-31T05:07:21.303Z,1019.21
2019-03-31T05:08:21.294Z,1019.21
2019-03-31T05:09:21.280Z,1019.20
2019-03-31T05:10:21.281Z,1019.19
2019-03-31T05:11:21.258Z,1019.24
2019-03-31T05:12:21.247Z,1019.25
2019-03-31T05:13:21.259Z,1019.31
2019-03-31T05:14:21.226Z,1019.27
2019-03-31T05:15:21.220Z,1019.27
2019-03-31T05:16:21.236Z,1019.24
2019-03-31T05:17:21.194Z,1019.30
2019-03-31T05:18:21.183Z,1019.33
2019-03-31T05:19:21.192Z,1019.35
2019-03-31T05:20:21.160Z,1019.38
2019-03-31T05:21:21.157Z,1019.37
2019-03-31T05:22:21.151Z,1019.38
2019-03-31T05:23:21.129Z,1019.44
2019-03-31T05:24:21.118Z,1019.45
2019-03-31T05:25:21.107Z,1019.54
2019-03-31T05:26:21.096Z,1019.53
2019-03-31T05:27:21.087Z,1019.60
2019-03-31T05:28:21.086Z,1019.59
2019-03-31T05:29:21.064Z,1019.58
2019-03-31T05:30:21.054Z,1019.58
2019-03-31T05:31:21.047Z,1019.60
2019-03-31T05:32:21.033Z,1019.64
2019-03-31T05:33:21.022Z,1019.56
2019-03-31T05:34:21.023Z,1019.59
2019-03-31T05:35:21.064Z,1019.62
2019-03-31T05:36:20.994Z,1019.63
2019-03-31T05:37:20.984Z,1019.63
2019-03-31T05:38:20.987Z,1019.64
2019-03-31T05:39:20.959Z,1019.61
2019-03-31T05:40:20.962Z,1019.69
2019-03-31T05:41:20.938Z,1019.67
2019-03-31T05:42:20.926Z,1019.70
2019-03-31T05:43:20.918Z,1019.67
2019-03-31T05:44:20.906Z,1019.68
2019-03-31T05:45:20.897Z,1019.74
2019-03-31T05:46:20.897Z,1019.72
2019-03-31T05:47:20.878Z,1019.75
2019-03-31T05:48:20.863Z,1019.76
2019-03-31T05:49:20.852Z,1019.73
2019-03-31T05:50:20.843Z,1019.77
2019-03-31T05:51:20.831Z,1019.69
2019-03-31T05:52:20.842Z,1019.72
2019-03-31T05:53:20.810Z,1019.77
2019-03-31T05:54:20.800Z,1019.68
2019-03-31T05:55:20.798Z,1019.75
2019-03-31T05:56:20.780Z,1019.74
2019-03-31T05:57:20.767Z,1019.79
2019-03-31T05:58:20.767Z,1019.86
2019-03-31T05:59:20.748Z,1019.85
2019-03-31T06:00:20.735Z,1019.87
2019-03-31T06:01:20.726Z,1019.89
2019-03-31T06:02:20.714Z,1019.86
2019-03-31T06:03:20.704Z,1019.90
2019-03-31T06:04:32.653Z,1019.95
2019-03-31T06:05:21.685Z,1019.95
2019-03-31T06:06:20.672Z,1019.95
2019-03-31T06:07:20.663Z,1019.94
2019-03-31T06:08:20.652Z,1019.92
2019-03-31T06:09:20.641Z,1020.00
2019-03-31T06:10:20.651Z,1020.06
2019-03-31T06:11:20.618Z,1020.03
2019-03-31T06:12:20.610Z,1020.05
2019-03-31T06:13:20.598Z,1019.97
2019-03-31T06:14:20.589Z,1020.06
2019-03-31T06:15:20.613Z,1019.98
2019-03-31T06:16:20.580Z,1020.05
2019-03-31T06:17:20.555Z,1020.09
2019-03-31T06:18:20.544Z,1020.06
2019-03-31T06:19:20.535Z,1020.06
2019-03-31T06:20:20.523Z,1020.10
2019-03-31T06:21:20.514Z,1020.13
2019-03-31T06:22:20.521Z,1020.12
2019-03-31T06:23:20.491Z,1020.14
2019-03-31T06:24:20.481Z,1020.16
2019-03-31T06:25:20.470Z,1020.19
2019-03-31T06:26:20.458Z,1020.18
2019-03-31T06:27:20.450Z,1020.18
2019-03-31T06:28:20.447Z,1020.15
2019-03-31T06:29:20.427Z,1020.13
2019-03-31T06:30:20.416Z,1020.17
2019-03-31T06:31:20.405Z,1020.17
2019-03-31T06:32:20.393Z,1020.17
2019-03-31T06:33:20.383Z,1020.21
2019-03-31T06:34:20.382Z,1020.22
2019-03-31T06:35:20.361Z,1020.24
2019-03-31T06:36:20.350Z,1020.29
2019-03-31T06:37:20.342Z,1020.19
2019-03-31T06:38:20.330Z,1020.20
2019-03-31T06:39:20.317Z,1020.19
2019-03-31T06:40:20.316Z,1020.25
2019-03-31T06:41:20.295Z,1020.24
2019-03-31T06:42:20.285Z,1020.29
2019-03-31T06:43:20.276Z,1020.24
2019-03-31T06:44:20.261Z,1020.26
2019-03-31T06:45:20.251Z,1020.30
2019-03-31T06:46:20.251Z,1020.30
2019-03-31T06:47:20.229Z,1020.35
2019-03-31T06:48:20.221Z,1020.39
2019-03-31T06:49:20.207Z,1020.39
2019-03-31T06:50:20.208Z,1020.38
2019-03-31T06:51:20.188Z,1020.45
2019-03-31T06:52:20.189Z,1020.41
2019-03-31T06:53:20.165Z,1020.37
2019-03-31T06:54:20.153Z,1020.46
2019-03-31T06:55:20.146Z,1020.42
2019-03-31T06:56:20.130Z,1020.47
2019-03-31T06:57:20.199Z,1020.51
2019-03-31T06:58:20.123Z,1020.46
2019-03-31T06:59:20.098Z,1020.45
2019-03-31T07:00:20.088Z,1020.48
2019-03-31T07:01:20.077Z,1020.44
2019-03-31T07:02:20.066Z,1020.54
2019-03-31T07:03:20.055Z,1020.47
2019-03-31T07:04:20.056Z,1020.48
2019-03-31T07:05:20.035Z,1020.54
2019-03-31T07:06:20.024Z,1020.52
2019-03-31T07:07:20.013Z,1020.55
2019-03-31T07:08:20.002Z,1020.55
2019-03-31T07:09:19.990Z,1020.51
2019-03-31T07:10:19.991Z,1020.56
2019-03-31T07:11:19.968Z,1020.58
2019-03-31T07:12:19.957Z,1020.54
2019-03-31T07:13:19.953Z,1020.58
2019-03-31T07:14:19.938Z,1020.60
2019-03-31T07:15:19.927Z,1020.61
2019-03-31T07:16:19.927Z,1020.57
2019-03-31T07:17:19.976Z,1020.59
2019-03-31T07:18:19.893Z,1020.55
2019-03-31T07:19:19.890Z,1020.56
2019-03-31T07:20:19.873Z,1020.60
2019-03-31T07:21:19.861Z,1020.55
2019-03-31T07:22:19.861Z,1020.51
2019-03-31T07:23:19.844Z,1020.58
2019-03-31T07:24:19.829Z,1020.65
2019-03-31T07:25:19.818Z,1020.61
2019-03-31T07:26:19.809Z,1020.63
2019-03-31T07:27:19.798Z,1020.65
2019-03-31T07:28:19.805Z,1020.68
2019-03-31T07:29:19.776Z,1020.73
2019-03-31T07:30:19.766Z,1020.71
2019-03-31T07:31:19.755Z,1020.69
2019-03-31T07:32:19.744Z,1020.69
2019-03-31T07:33:19.733Z,1020.76
2019-03-31T07:34:19.736Z,1020.76
2019-03-31T07:35:19.713Z,1020.78
2019-03-31T07:36:19.705Z,1020.77
2019-03-31T07:37:19.701Z,1020.78
2019-03-31T07:38:19.681Z,1020.84
2019-03-31T07:39:19.676Z,1020.85
2019-03-31T07:40:20.121Z,1020.78
2019-03-31T07:41:20.169Z,1020.79
2019-03-31T07:42:19.751Z,1020.86
2019-03-31T07:43:19.761Z,1020.89
2019-03-31T07:44:19.617Z,1020.86
2019-03-31T07:45:19.606Z,1020.86
2019-03-31T07:46:19.627Z,1020.95
2019-03-31T07:47:19.591Z,1020.87
2019-03-31T07:48:19.573Z,1020.84
2019-03-31T07:49:19.564Z,1020.93
2019-03-31T07:50:19.560Z,1020.89
2019-03-31T07:51:19.541Z,1020.90
2019-03-31T07:52:19.540Z,1020.94
2019-03-31T07:53:19.518Z,1020.97
2019-03-31T07:54:19.508Z,1020.95
2019-03-31T07:55:19.498Z,1020.99
2019-03-31T07:56:19.487Z,1020.95
2019-03-31T07:57:19.475Z,1020.93
2019-03-31T07:58:19.526Z,1020.86
2019-03-31T07:59:19.520Z,1020.89
2019-03-31T08:00:19.450Z,1020.89
2019-03-31T08:01:19.434Z,1020.89
2019-03-31T08:02:19.423Z,1020.97
2019-03-31T08:03:19.411Z,1020.95
2019-03-31T08:04:19.419Z,1021.02
2019-03-31T08:05:32.349Z,1021.00
2019-03-31T08:06:20.382Z,1020.99
2019-03-31T08:07:19.368Z,1021.01
2019-03-31T08:08:19.355Z,1021.15
2019-03-31T08:09:19.344Z,1021.04
2019-03-31T08:10:19.344Z,1021.01
2019-03-31T08:11:19.323Z,1021.17
2019-03-31T08:12:19.312Z,1021.11
2019-03-31T08:13:19.301Z,1021.03
2019-03-31T08:14:19.291Z,1021.04
2019-03-31T08:15:19.281Z,1021.06
2019-03-31T08:16:19.279Z,1021.02
2019-03-31T08:17:19.260Z,1021.05
2019-03-31T08:18:19.247Z,1021.09
2019-03-31T08:19:20.785Z,1021.04
2019-03-31T08:20:19.225Z,1021.03
2019-03-31T08:21:19.308Z,1021.00
2019-03-31T08:22:19.219Z,1020.97
2019-03-31T08:23:19.192Z,1021.01
2019-03-31T08:24:19.183Z,1021.05
2019-03-31T08:25:19.177Z,1020.99
2019-03-31T08:26:19.160Z,1021.06
2019-03-31T08:27:19.150Z,1021.04
2019-03-31T08:28:19.150Z,1021.10
2019-03-31T08:29:19.128Z,1021.05
2019-03-31T08:30:19.120Z,1021.06
2019-03-31T08:31:19.108Z,1021.05
2019-03-31T08:32:19.096Z,1021.01
2019-03-31T08:33:19.085Z,1021.04
2019-03-31T08:34:19.171Z,1021.09
2019-03-31T08:35:19.064Z,1021.11
2019-03-31T08:36:19.059Z,1021.12
2019-03-31T08:37:19.042Z,1021.12
2019-03-31T08:38:19.032Z,1021.15
2019-03-31T08:39:19.022Z,1021.14
2019-03-31T08:40:19.029Z,1021.12
2019-03-31T08:41:19.005Z,1021.24
2019-03-31T08:42:18.990Z,1021.25
2019-03-31T08:43:18.980Z,1021.17
2019-03-31T08:44:18.968Z,1021.23
2019-03-31T08:45:18.958Z,1021.29
2019-03-31T08:46:18.959Z,1021.38
2019-03-31T08:47:18.936Z,1021.31
2019-03-31T08:48:18.924Z,1021.37
2019-03-31T08:49:18.915Z,1021.36
2019-03-31T08:50:18.902Z,1021.34
2019-03-31T08:51:18.891Z,1021.41
2019-03-31T08:52:18.893Z,1021.37
2019-03-31T08:53:18.869Z,1021.41
2019-03-31T08:54:18.859Z,1021.37
2019-03-31T08:55:18.849Z,1021.39
2019-03-31T08:56:18.839Z,1021.37
2019-03-31T08:57:18.826Z,1021.38
2019-03-31T08:58:18.836Z,1021.33
2019-03-31T08:59:18.805Z,1021.34
2019-03-31T09:00:18.795Z,1021.38
2019-03-31T09:01:18.784Z,1021.31
2019-03-31T09:02:18.775Z,1021.45
2019-03-31T09:03:18.761Z,1021.35
2019-03-31T09:04:18.762Z,1021.37
2019-03-31T09:05:18.739Z,1021.43
2019-03-31T09:06:18.729Z,1021.41
2019-03-31T09:07:18.718Z,1021.35
2019-03-31T09:08:18.708Z,1021.39
2019-03-31T09:09:18.696Z,1021.42
2019-03-31T09:10:18.698Z,1021.49
2019-03-31T09:11:18.674Z,1021.51
2019-03-31T09:12:18.677Z,1021.46
2019-03-31T09:13:18.654Z,1021.47
2019-03-31T09:14:18.642Z,1021.52
2019-03-31T09:15:18.631Z,1021.50
2019-03-31T09:16:18.634Z,1021.47
2019-03-31T09:17:18.609Z,1021.55
2019-03-31T09:18:18.602Z,1021.57
2019-03-31T09:19:18.587Z,1021.62
2019-03-31T09:20:18.577Z,1021.61
2019-03-31T09:21:18.565Z,1021.60
2019-03-31T09:22:18.566Z,1021.63
2019-03-31T09:23:18.544Z,1021.65
2019-03-31T09:24:18.535Z,1021.66
2019-03-31T09:25:18.522Z,1021.68
2019-03-31T09:26:18.559Z,1021.67
2019-03-31T09:27:18.500Z,1021.70
2019-03-31T09:28:18.510Z,1021.69
2019-03-31T09:29:18.480Z,1021.76
2019-03-31T09:30:18.469Z,1021.73
2019-03-31T09:31:18.458Z,1021.72
2019-03-31T09:32:18.449Z,1021.75
2019-03-31T09:33:18.437Z,1021.77
2019-03-31T09:34:18.435Z,1021.77
2019-03-31T09:35:18.415Z,1021.72
2019-03-31T09:36:18.407Z,1021.77
2019-03-31T09:37:18.393Z,1021.80
2019-03-31T09:38:18.388Z,1021.82
2019-03-31T09:39:18.373Z,1021.77
2019-03-31T09:40:18.371Z,1021.82
2019-03-31T09:41:18.351Z,1021.76
2019-03-31T09:42:18.339Z,1021.80
2019-03-31T09:43:18.329Z,1021.81
2019-03-31T09:44:18.319Z,1021.83
2019-03-31T09:45:18.309Z,1021.85
2019-03-31T09:46:18.306Z,1021.80
2019-03-31T09:47:18.286Z,1021.80
2019-03-31T09:48:18.275Z,1021.81
2019-03-31T09:49:18.266Z,1021.80
2019-03-31T09:50:18.254Z,1021.79
2019-03-31T09:51:18.251Z,1021.79
2019-03-31T09:52:18.252Z,1021.77
2019-03-31T09:53:18.227Z,1021.81
2019-03-31T09:54:18.213Z,1021.85
2019-03-31T09:55:18.199Z,1021.84
2019-03-31T09:56:18.190Z,1021.83
2019-03-31T09:57:18.178Z,1021.90
2019-03-31T09:58:18.179Z,1021.85
2019-03-31T09:59:18.157Z,1021.84
2019-03-31T10:00:18.152Z,1021.92
2019-03-31T10:01:18.140Z,1021.89
2019-03-31T10:02:18.126Z,1021.89
2019-03-31T10:03:18.117Z,1021.92
2019-03-31T10:04:18.116Z,1021.92
2019-03-31T10:05:18.093Z,1021.93
2019-03-31T10:06:29.546Z,1021.92
2019-03-31T10:07:19.069Z,1021.88
2019-03-31T10:08:21.579Z,1021.86
2019-03-31T10:09:18.049Z,1021.88
2019-03-31T10:10:18.048Z,1021.84
2019-03-31T10:11:18.027Z,1021.82
2019-03-31T10:12:18.018Z,1021.84
2019-03-31T10:13:18.005Z,1021.82
2019-03-31T10:14:17.993Z,1021.75
2019-03-31T10:15:17.983Z,1021.80
2019-03-31T10:16:18.050Z,1021.72
2019-03-31T10:17:17.961Z,1021.76
2019-03-31T10:18:18.414Z,1021.77
2019-03-31T10:19:17.941Z,1021.71
2019-03-31T10:20:17.928Z,1021.71
2019-03-31T10:21:17.917Z,1021.75
2019-03-31T10:22:17.925Z,1021.73
2019-03-31T10:23:17.895Z,1021.79
2019-03-31T10:24:17.885Z,1021.78
2019-03-31T10:25:17.873Z,1021.85
2019-03-31T10:26:31.055Z,1021.86
2019-03-31T10:27:18.860Z,1021.86
2019-03-31T10:28:17.840Z,1021.81
2019-03-31T10:29:17.833Z,1021.80
2019-03-31T10:30:17.818Z,1021.88
2019-03-31T10:31:17.808Z,1021.84
2019-03-31T10:32:17.797Z,1021.82
2019-03-31T10:33:17.827Z,1021.79
2019-03-31T10:34:17.776Z,1021.78
2019-03-31T10:35:17.765Z,1021.80
2019-03-31T10:36:17.755Z,1021.80
2019-03-31T10:37:17.744Z,1021.79
2019-03-31T10:38:17.732Z,1021.81
2019-03-31T10:39:17.741Z,1021.77
2019-03-31T10:40:17.712Z,1021.75
2019-03-31T10:41:17.701Z,1021.81
2019-03-31T10:42:17.690Z,1021.79
2019-03-31T10:43:17.680Z,1021.78
2019-03-31T10:44:17.671Z,1021.77
2019-03-31T10:45:17.670Z,1021.75
2019-03-31T10:46:17.648Z,1021.78
2019-03-31T10:47:17.636Z,1021.82
2019-03-31T10:48:21.065Z,1021.80
2019-03-31T10:49:17.615Z,1021.80
2019-03-31T10:50:17.615Z,1021.78
2019-03-31T10:51:17.606Z,1021.82
2019-03-31T10:52:17.583Z,1021.78
2019-03-31T10:53:17.572Z,1021.80
2019-03-31T10:54:17.563Z,1021.81
2019-03-31T10:55:17.554Z,1021.89
2019-03-31T10:56:17.541Z,1021.80
2019-03-31T10:57:17.539Z,1021.79
2019-03-31T10:58:17.518Z,1021.85
2019-03-31T10:59:17.508Z,1021.83
2019-03-31T11:00:17.498Z,1021.77
2019-03-31T11:01:17.487Z,1021.75
2019-03-31T11:02:17.477Z,1021.79
2019-03-31T11:03:17.478Z,1021.74
2019-03-31T11:04:17.455Z,1021.75
2019-03-31T11:05:17.444Z,1021.82
2019-03-31T11:06:17.433Z,1021.81
2019-03-31T11:07:17.422Z,1021.86
2019-03-31T11:08:17.416Z,1021.85
2019-03-31T11:09:17.412Z,1021.84
2019-03-31T11:10:17.390Z,1021.78
2019-03-31T11:11:17.380Z,1021.76
2019-03-31T11:12:17.369Z,1021.87
2019-03-31T11:13:17.360Z,1021.87
2019-03-31T11:14:17.348Z,1021.82
2019-03-31T11:15:17.348Z,1021.87
2019-03-31T11:16:17.328Z,1021.92
2019-03-31T11:17:17.315Z,1021.90
2019-03-31T11:18:17.306Z,1021.90
2019-03-31T11:19:17.295Z,1021.95
2019-03-31T11:20:17.286Z,1021.92
2019-03-31T11:21:17.283Z,1021.94
2019-03-31T11:22:17.262Z,1021.97
2019-03-31T11:23:17.251Z,1021.93
2019-03-31T11:24:17.259Z,1021.91
2019-03-31T11:25:22.068Z,1021.92
2019-03-31T11:26:18.229Z,1021.91
2019-03-31T11:27:17.208Z,1021.86
2019-03-31T11:28:17.198Z,1021.87
2019-03-31T11:29:17.185Z,1021.92
2019-03-31T11:30:17.175Z,1021.90
2019-03-31T11:31:18.103Z,1021.81
2019-03-31T11:32:17.166Z,1021.87
2019-03-31T11:33:17.144Z,1021.85
2019-03-31T11:34:19.585Z,1021.89
2019-03-31T11:35:17.119Z,1021.90
2019-03-31T11:36:17.110Z,1021.91
2019-03-31T11:37:17.100Z,1021.91
2019-03-31T11:38:17.097Z,1021.88
2019-03-31T11:39:17.077Z,1021.90
2019-03-31T11:40:17.064Z,1021.89
2019-03-31T11:41:17.057Z,1021.93
2019-03-31T11:42:17.043Z,1021.89
2019-03-31T11:43:17.033Z,1021.89
2019-03-31T11:44:17.031Z,1021.82
2019-03-31T11:45:17.010Z,1021.82
2019-03-31T11:46:16.999Z,1021.85
2019-03-31T11:47:16.990Z,1021.86
2019-03-31T11:48:16.988Z,1021.78
2019-03-31T11:49:16.967Z,1021.84
2019-03-31T11:50:16.967Z,1021.89
2019-03-31T11:51:16.946Z,1021.87
2019-03-31T11:52:16.933Z,1021.90
2019-03-31T11:53:16.922Z,1021.89
2019-03-31T11:54:16.913Z,1021.94
2019-03-31T11:55:16.900Z,1021.91
2019-03-31T11:56:16.902Z,1021.93
2019-03-31T11:57:17.597Z,1021.97
2019-03-31T11:58:16.868Z,1021.91
2019-03-31T11:59:16.858Z,1021.93
2019-03-31T12:00:16.847Z,1021.87
2019-03-31T12:01:16.835Z,1021.92
2019-03-31T12:02:26.885Z,1021.91
2019-03-31T12:03:17.813Z,1021.89
2019-03-31T12:04:16.801Z,1021.93
2019-03-31T12:05:16.790Z,1021.90